Time;durP1;ratioP1;P1;durP2;ratioP2;P2;SDS_P1;SDS_P2;PMS_P1;PMS_P2;Temp;Humidity;BMP_temperature;BMP_pressure;BME280_temperature;BME280_humidity;BME280_pressure;Samples;Min_cycle;Max_cycle;Signal;HPM_P1;HPM_P2
2021/06/18 00:00:27;;;;;;;8.17;7.47;;;20.40;99.90;;;;;;4948395;29;20200;-84
2021/06/18 00:02:55;;;;;;;8.37;7.57;;;20.30;99.90;;;;;;4956340;28;20702;-83
2021/06/18 00:05:27;;;;;;;7.63;7.03;;;20.30;99.90;;;;;;4939386;29;20274;-84
2021/06/18 00:07:56;;;;;;;7.87;7.20;;;20.20;99.90;;;;;;4945327;28;20202;-83
2021/06/18 00:10:26;;;;;;;7.83;7.13;;;20.20;99.90;;;;;;4943540;29;20281;-83
2021/06/18 00:12:54;;;;;;;8.63;7.93;;;20.20;99.90;;;;;;4939264;29;20247;-83
2021/06/18 00:15:22;;;;;;;8.70;8.00;;;20.10;99.90;;;;;;4955854;29;20221;-83
2021/06/18 00:17:52;;;;;;;8.20;7.50;;;20.10;99.90;;;;;;4947414;28;20685;-82
2021/06/18 00:20:24;;;;;;;8.87;8.07;;;20.10;99.90;;;;;;4954518;29;20203;-82
2021/06/18 00:22:52;;;;;;;8.20;7.50;;;20.00;99.90;;;;;;4947761;29;20223;-82
2021/06/18 00:25:19;;;;;;;8.90;8.10;;;19.90;99.90;;;;;;4951977;28;20725;-83
2021/06/18 00:27:46;;;;;;;9.27;8.47;;;19.90;99.90;;;;;;4951042;28;20271;-82
2021/06/18 00:30:15;;;;;;;9.63;8.83;;;19.90;99.90;;;;;;4953833;28;20584;-81
2021/06/18 00:32:42;;;;;;;10.03;9.03;;;19.80;99.90;;;;;;4946594;28;20234;-82
2021/06/18 00:35:10;;;;;;;9.70;8.70;;;19.80;99.90;;;;;;4939337;29;20214;-83
2021/06/18 00:37:39;;;;;;;9.30;8.40;;;19.80;99.90;;;;;;4945468;29;20274;-82
2021/06/18 00:40:07;;;;;;;9.47;8.57;;;19.80;99.90;;;;;;4964916;28;20218;-81
2021/06/18 00:42:35;;;;;;;9.37;8.57;;;19.80;99.90;;;;;;4942574;28;20218;-82
2021/06/18 00:45:02;;;;;;;9.93;9.03;;;19.70;99.90;;;;;;4944993;28;20250;-81
2021/06/18 00:47:30;;;;;;;10.40;9.50;;;19.70;99.90;;;;;;4939335;29;20213;-82
2021/06/18 00:49:58;;;;;;;9.17;8.37;;;19.70;99.90;;;;;;4949088;28;20191;-81
2021/06/18 00:52:25;;;;;;;9.57;8.67;;;19.70;99.90;;;;;;4936356;29;20232;-82
2021/06/18 00:54:54;;;;;;;11.57;10.33;;;19.70;99.90;;;;;;4940634;29;20222;-81
2021/06/18 00:57:26;;;;;;;10.27;9.27;;;19.60;99.90;;;;;;4955653;28;20292;-82
2021/06/18 00:59:54;;;;;;;10.27;9.27;;;19.60;99.90;;;;;;4952099;28;20231;-82
2021/06/18 01:02:21;;;;;;;9.83;8.93;;;19.60;99.90;;;;;;4947113;28;20223;-82
2021/06/18 01:04:49;;;;;;;10.40;9.40;;;19.60;99.90;;;;;;4966459;28;20695;-82
2021/06/18 01:07:18;;;;;;;11.00;8.97;;;19.50;99.90;;;;;;4949169;28;20206;-82
2021/06/18 01:10:01;;;;;;;10.07;8.93;;;19.50;99.90;;;;;;4935946;29;20210;-81
2021/06/18 01:12:37;;;;;;;10.40;9.40;;;19.50;99.90;;;;;;4935278;29;20316;-82
2021/06/18 01:15:07;;;;;;;9.47;8.63;;;19.40;99.90;;;;;;4935409;29;20262;-82
2021/06/18 01:17:43;;;;;;;9.40;8.60;;;19.50;99.90;;;;;;4935469;29;20266;-82
2021/06/18 01:20:27;;;;;;;9.97;8.90;;;19.50;99.90;;;;;;4943536;29;20237;-82
2021/06/18 01:22:56;;;;;;;10.00;9.10;;;19.60;99.90;;;;;;4936269;29;20218;-82
2021/06/18 01:25:35;;;;;;;10.77;9.77;;;19.70;99.90;;;;;;4934893;29;20305;-82
2021/06/18 01:28:12;;;;;;;9.93;9.13;;;19.70;99.90;;;;;;4935188;29;20714;-83
2021/06/18 01:30:44;;;;;;;11.03;10.00;;;19.80;99.90;;;;;;4934928;29;20203;-82
2021/06/18 01:33:15;;;;;;;10.80;9.80;;;19.70;99.90;;;;;;4970288;28;20214;-82
2021/06/18 01:35:46;;;;;;;10.87;9.97;;;19.70;99.90;;;;;;4951742;29;20240;-82
2021/06/18 01:38:14;;;;;;;11.07;10.13;;;19.70;99.90;;;;;;4939587;29;20319;-82
2021/06/18 01:40:44;;;;;;;10.53;9.53;;;19.60;99.90;;;;;;4942461;29;20253;-82
2021/06/18 01:43:14;;;;;;;10.67;9.70;;;19.60;99.90;;;;;;4935459;29;20231;-82
2021/06/18 01:45:47;;;;;;;10.43;9.43;;;19.50;99.90;;;;;;4934709;29;20233;-82
2021/06/18 01:48:20;;;;;;;10.67;9.67;;;19.50;99.90;;;;;;4938776;29;20287;-81
2021/06/18 01:50:59;;;;;;;10.53;9.57;;;19.50;99.90;;;;;;4917920;29;20290;-81
2021/06/18 01:53:42;;;;;;;10.73;9.83;;;19.50;99.90;;;;;;4933514;29;20206;-82
2021/06/18 01:56:24;;;;;;;10.67;9.70;;;19.50;99.90;;;;;;4949773;29;20264;-81
2021/06/18 01:58:55;;;;;;;10.07;9.23;;;19.40;99.90;;;;;;4943674;28;20214;-81
2021/06/18 02:01:26;;;;;;;10.70;9.73;;;19.40;99.90;;;;;;4931066;29;20783;-81
2021/06/18 02:03:53;;;;;;;10.57;9.67;;;19.30;99.90;;;;;;4939780;29;20195;-81
2021/06/18 02:06:23;;;;;;;10.60;9.70;;;19.30;99.90;;;;;;4935506;29;20203;-81
2021/06/18 02:09:02;;;;;;;9.50;8.63;;;19.30;99.90;;;;;;4937203;29;20233;-81
2021/06/18 02:11:32;;;;;;;11.07;10.07;;;19.30;99.90;;;;;;4941268;29;20232;-81
2021/06/18 02:14:00;;;;;;;10.53;9.53;;;19.20;99.90;;;;;;4936886;29;20202;-81
2021/06/18 02:16:35;;;;;;;10.87;10.00;;;19.20;99.90;;;;;;4945840;29;20208;-80
2021/06/18 02:19:03;;;;;;;10.57;9.57;;;19.20;99.90;;;;;;4939964;28;20846;-81
2021/06/18 02:21:31;;;;;;;10.90;10.00;;;19.20;99.90;;;;;;4936908;29;20631;-81
2021/06/18 02:24:00;;;;;;;11.23;10.33;;;19.10;99.90;;;;;;4953360;28;20204;-80
2021/06/18 02:26:29;;;;;;;10.33;9.33;;;19.10;99.90;;;;;;4950109;28;20303;-81
2021/06/18 02:28:56;;;;;;;11.40;10.30;;;18.90;99.90;;;;;;4942958;29;20204;-81
2021/06/18 02:31:25;;;;;;;11.20;10.17;;;18.90;99.90;;;;;;4952900;28;20219;-80
2021/06/18 02:33:56;;;;;;;10.50;9.50;;;18.90;99.90;;;;;;4938184;29;20210;-80
2021/06/18 02:36:29;;;;;;;10.10;9.20;;;18.80;99.90;;;;;;4953065;28;20825;-80
2021/06/18 02:39:06;;;;;;;10.63;9.73;;;18.80;99.90;;;;;;4960910;28;20216;-80
2021/06/18 02:41:37;;;;;;;9.57;8.77;;;18.80;99.90;;;;;;4946462;29;20233;-79
2021/06/18 02:44:07;;;;;;;9.50;8.70;;;18.70;99.90;;;;;;4937954;29;20650;-79
2021/06/18 02:46:41;;;;;;;8.67;7.90;;;18.70;99.90;;;;;;4938156;29;20201;-82
2021/06/18 02:49:18;;;;;;;8.67;7.97;;;18.70;99.90;;;;;;4947423;29;20310;-79
2021/06/18 02:51:53;;;;;;;8.93;8.13;;;18.70;99.90;;;;;;4942222;29;20221;-78
2021/06/18 02:57:56;;;;;;;7.80;7.20;;;18.60;99.90;;;;;;4948106;28;20206;-80
2021/06/18 03:00:27;;;;;;;7.93;7.33;;;18.60;99.90;;;;;;4936084;29;20217;-80
2021/06/18 03:02:59;;;;;;;7.60;7.00;;;18.60;99.90;;;;;;4935904;29;20226;-81
2021/06/18 03:05:30;;;;;;;7.53;6.93;;;18.60;99.90;;;;;;4935901;29;20214;-82
2021/06/18 03:07:59;;;;;;;9.27;8.37;;;18.60;99.90;;;;;;4934971;29;20200;-81
2021/06/18 03:10:28;;;;;;;10.53;9.73;;;18.50;99.90;;;;;;4939635;29;20687;-81
2021/06/18 03:13:00;;;;;;;9.30;8.60;;;18.40;99.90;;;;;;4935840;29;20217;-82
2021/06/18 03:15:31;;;;;;;10.43;9.63;;;18.50;99.90;;;;;;4942260;29;20288;-82
2021/06/18 03:18:00;;;;;;;10.17;9.27;;;18.40;99.90;;;;;;4935688;29;20197;-81
2021/06/18 03:20:28;;;;;;;10.77;9.30;;;18.40;99.90;;;;;;4950163;29;20228;-81
2021/06/18 03:23:00;;;;;;;10.53;9.63;;;18.40;99.90;;;;;;4936292;29;20217;-82
2021/06/18 03:25:28;;;;;;;10.03;9.03;;;18.40;99.90;;;;;;4943425;28;20679;-81
2021/06/18 03:27:56;;;;;;;10.17;9.27;;;18.40;99.90;;;;;;4935383;29;20205;-80
2021/06/18 03:30:25;;;;;;;10.03;9.13;;;18.30;99.90;;;;;;4946693;29;20216;-78
2021/06/18 03:32:53;;;;;;;9.30;8.43;;;18.30;99.90;;;;;;4934123;29;20621;-79
2021/06/18 03:35:22;;;;;;;9.57;8.60;;;18.30;99.90;;;;;;4941764;29;20219;-79
2021/06/18 03:37:50;;;;;;;10.17;9.27;;;18.40;99.90;;;;;;4937135;29;20228;-79
2021/06/18 03:40:18;;;;;;;9.67;8.87;;;18.30;99.90;;;;;;4943049;29;20223;-78
2021/06/18 03:42:46;;;;;;;9.33;8.53;;;18.40;99.90;;;;;;4937255;29;20215;-78
2021/06/18 03:45:13;;;;;;;10.27;8.80;;;18.40;99.90;;;;;;4937512;29;20209;-79
2021/06/18 03:47:41;;;;;;;10.47;9.57;;;18.50;99.90;;;;;;4940462;29;20266;-81
2021/06/18 03:50:10;;;;;;;10.50;9.70;;;18.60;99.90;;;;;;4950736;28;20208;-79
2021/06/18 03:52:38;;;;;;;10.30;9.40;;;18.70;99.90;;;;;;4938872;28;20224;-79
2021/06/18 03:55:08;;;;;;;10.63;9.60;;;18.70;99.90;;;;;;4950915;29;20201;-79
2021/06/18 03:57:36;;;;;;;10.40;9.50;;;18.80;99.90;;;;;;4936039;29;20197;-79
2021/06/18 04:00:06;;;;;;;11.60;10.60;;;18.80;99.90;;;;;;4936054;29;20216;-78
2021/06/18 04:02:40;;;;;;;11.30;10.40;;;18.90;99.90;;;;;;4936022;29;20736;-78
2021/06/18 04:05:08;;;;;;;10.30;9.40;;;18.90;99.90;;;;;;4930735;29;20264;-77
2021/06/18 04:07:35;;;;;;;11.23;10.30;;;18.90;99.90;;;;;;4950713;28;20216;-79
2021/06/18 04:10:03;;;;;;;10.50;9.60;;;19.00;99.90;;;;;;4936241;29;20575;-79
2021/06/18 04:12:31;;;;;;;9.93;9.13;;;19.00;99.90;;;;;;4936265;29;20249;-80
2021/06/18 04:15:00;;;;;;;10.50;9.60;;;19.10;99.90;;;;;;4942118;29;20215;-80
2021/06/18 04:17:27;;;;;;;10.67;9.57;;;19.10;99.90;;;;;;4936209;29;20198;-79
2021/06/18 04:19:55;;;;;;;10.93;10.03;;;19.20;99.90;;;;;;4936159;29;20393;-79
2021/06/18 04:22:30;;;;;;;11.20;10.17;;;19.30;99.90;;;;;;4935085;29;20229;-77
2021/06/18 04:24:57;;;;;;;11.80;10.90;;;19.40;99.90;;;;;;4947685;28;20218;-79
2021/06/18 04:27:25;;;;;;;11.37;10.30;;;19.50;99.90;;;;;;4945108;28;20200;-79
2021/06/18 04:29:53;;;;;;;11.40;10.40;;;19.60;99.90;;;;;;4935522;29;20215;-79
2021/06/18 04:32:20;;;;;;;10.47;9.57;;;19.70;99.90;;;;;;4942783;28;20275;-79
2021/06/18 04:34:50;;;;;;;10.03;9.10;;;19.80;99.90;;;;;;4936489;29;20663;-77
2021/06/18 04:37:17;;;;;;;10.27;9.47;;;19.90;99.90;;;;;;4942967;29;20203;-79
2021/06/18 04:39:43;;;;;;;10.50;9.70;;;20.00;99.90;;;;;;4935985;29;20702;-77
2021/06/18 04:42:10;;;;;;;10.80;10.00;;;20.20;99.90;;;;;;4936364;29;20237;-79
2021/06/18 04:44:38;;;;;;;11.40;10.23;;;20.30;99.90;;;;;;4944754;29;20203;-78
2021/06/18 04:47:06;;;;;;;11.30;10.30;;;20.30;99.90;;;;;;4936380;29;20235;-78
2021/06/18 04:49:33;;;;;;;11.47;10.33;;;20.50;99.90;;;;;;4935215;29;20289;-77
2021/06/18 04:52:00;;;;;;;11.43;10.53;;;20.90;99.90;;;;;;4935210;29;20251;-79
2021/06/18 04:54:28;;;;;;;10.50;9.67;;;21.60;99.90;;;;;;4936065;29;20196;-78
2021/06/18 04:56:55;;;;;;;12.13;11.13;;;22.00;99.90;;;;;;4937799;29;20230;-80
2021/06/18 04:59:22;;;;;;;10.60;9.70;;;22.00;99.90;;;;;;4935539;29;20236;-80
2021/06/18 05:01:49;;;;;;;9.73;8.90;;;22.20;99.90;;;;;;4950824;28;20222;-78
2021/06/18 05:04:17;;;;;;;8.17;7.37;;;22.30;99.90;;;;;;4938769;29;20210;-78
2021/06/18 05:06:44;;;;;;;9.97;8.97;;;22.30;99.90;;;;;;4942728;29;20618;-78
2021/06/18 05:09:10;;;;;;;9.50;8.63;;;22.50;99.90;;;;;;4935644;29;20203;-78
2021/06/18 05:11:37;;;;;;;9.13;6.50;;;22.50;99.90;;;;;;4940461;28;20215;-78
2021/06/18 05:14:04;;;;;;;8.70;7.23;;;22.60;99.90;;;;;;4936238;29;20199;-79
2021/06/18 05:16:31;;;;;;;6.37;5.70;;;22.70;99.90;;;;;;4936276;29;20218;-79
2021/06/18 05:18:58;;;;;;;8.73;7.40;;;23.00;99.90;;;;;;4942971;29;20195;-78
2021/06/18 05:24:05;;;;;;;9.33;8.43;;;23.30;99.90;;;;;;4931194;29;20958;-76
2021/06/18 05:26:34;;;;;;;9.50;8.43;;;23.50;99.90;;;;;;4933256;29;20242;-78
2021/06/18 05:29:01;;;;;;;7.63;6.97;;;23.60;99.90;;;;;;4934544;29;20203;-77
2021/06/18 05:31:28;;;;;;;8.00;7.40;;;23.70;99.90;;;;;;4935986;29;20203;-77
2021/06/18 05:33:55;;;;;;;7.80;7.10;;;23.80;99.90;;;;;;4927410;29;20222;-78
2021/06/18 05:36:22;;;;;;;7.30;6.70;;;24.00;99.90;;;;;;4934978;29;20209;-77
2021/06/18 05:38:48;;;;;;;6.93;6.33;;;24.30;99.90;;;;;;4932469;29;20210;-78
2021/06/18 05:41:16;;;;;;;7.97;7.27;;;24.90;99.90;;;;;;4929709;29;20226;-77
2021/06/18 05:43:43;;;;;;;6.50;6.00;;;25.70;99.90;;;;;;4934402;29;20238;-78
2021/06/18 05:46:10;;;;;;;6.40;5.90;;;26.40;99.90;;;;;;4934845;29;20200;-77
2021/06/18 05:48:37;;;;;;;6.43;5.93;;;27.00;99.90;;;;;;4936485;29;20199;-78
2021/06/18 05:51:04;;;;;;;7.00;6.30;;;27.80;99.90;;;;;;4930649;29;20258;-78
2021/06/18 05:53:31;;;;;;;6.63;5.80;;;28.30;99.90;;;;;;4947930;28;20613;-77
2021/06/18 05:55:59;;;;;;;6.60;6.00;;;28.40;99.90;;;;;;4937770;29;20199;-77
2021/06/18 05:58:28;;;;;;;6.93;6.20;;;28.90;99.90;;;;;;4937531;29;20198;-77
2021/06/18 06:00:55;;;;;;;6.40;5.80;;;29.10;99.90;;;;;;4930490;29;20591;-78
2021/06/18 06:03:23;;;;;;;8.07;5.93;;;29.30;99.90;;;;;;4937029;29;20250;-77
2021/06/18 06:05:50;;;;;;;6.50;5.90;;;29.70;99.90;;;;;;4937799;29;20207;-76
2021/06/18 06:08:17;;;;;;;6.53;5.93;;;30.20;99.90;;;;;;4928727;29;20225;-77
2021/06/18 06:10:48;;;;;;;7.10;6.50;;;30.50;99.30;;;;;;4937537;29;20694;-77
2021/06/18 06:13:17;;;;;;;6.97;6.27;;;30.40;98.50;;;;;;4931267;29;20753;-77
2021/06/18 06:15:46;;;;;;;7.43;6.77;;;30.60;99.20;;;;;;4937263;29;20633;-76
2021/06/18 06:18:13;;;;;;;7.97;7.20;;;30.90;99.90;;;;;;4935268;29;20206;-77
2021/06/18 06:20:41;;;;;;;10.57;6.53;;;31.00;99.90;;;;;;4937223;29;20282;-77
2021/06/18 06:23:08;;;;;;;7.37;6.53;;;31.10;99.70;;;;;;4931852;29;20234;-77
2021/06/18 06:25:35;;;;;;;7.37;6.67;;;31.20;99.90;;;;;;4932563;29;20211;-77
2021/06/18 06:28:03;;;;;;;8.00;6.50;;;31.00;97.70;;;;;;4936102;29;20214;-76
2021/06/18 06:30:31;;;;;;;7.43;6.33;;;30.90;99.90;;;;;;4935099;29;20196;-77
2021/06/18 06:32:59;;;;;;;7.70;6.40;;;30.90;99.10;;;;;;4936596;29;20215;-77
2021/06/18 06:35:25;;;;;;;9.20;6.53;;;30.90;99.20;;;;;;4929389;29;20257;-77
2021/06/18 06:37:52;;;;;;;7.70;7.00;;;30.80;99.90;;;;;;4937134;29;20198;-77
2021/06/18 06:40:20;;;;;;;9.23;6.47;;;31.00;99.90;;;;;;4936057;29;20215;-77
2021/06/18 06:42:47;;;;;;;7.13;6.33;;;30.90;99.60;;;;;;4937567;29;20230;-78
2021/06/18 06:45:15;;;;;;;7.43;6.60;;;30.80;99.60;;;;;;4937954;29;20196;-79
2021/06/18 06:47:42;;;;;;;8.30;6.90;;;30.90;99.50;;;;;;4933710;29;20211;-75
2021/06/18 06:50:12;;;;;;;7.60;6.80;;;30.60;98.40;;;;;;4937425;29;20215;-78
2021/06/18 06:52:38;;;;;;;9.10;6.53;;;30.90;97.50;;;;;;4935826;29;20230;-77
2021/06/18 06:55:07;;;;;;;7.37;6.53;;;31.20;98.60;;;;;;4936011;29;20199;-77
2021/06/18 06:57:34;;;;;;;7.80;7.10;;;31.10;96.30;;;;;;4936263;29;20222;-76
2021/06/18 07:00:00;;;;;;;10.00;6.67;;;31.10;96.00;;;;;;4933450;29;20690;-77
2021/06/18 07:02:27;;;;;;;7.07;6.37;;;31.20;96.50;;;;;;4934184;29;20231;-77
2021/06/18 07:04:54;;;;;;;7.27;6.57;;;31.30;96.50;;;;;;4934766;29;20207;-77
2021/06/18 07:07:22;;;;;;;6.63;5.87;;;31.30;96.10;;;;;;4935459;29;20855;-77
2021/06/18 07:09:49;;;;;;;6.57;5.97;;;31.50;95.00;;;;;;4934426;29;20204;-76
2021/06/18 07:12:16;;;;;;;6.40;5.80;;;31.50;93.80;;;;;;4935781;29;20928;-76
2021/06/18 07:14:42;;;;;;;6.27;5.70;;;31.40;92.00;;;;;;4934861;29;20202;-77
2021/06/18 07:17:10;;;;;;;6.20;5.70;;;31.50;93.30;;;;;;4936514;29;20238;-77
2021/06/18 07:19:38;;;;;;;6.33;5.73;;;31.50;92.40;;;;;;4936132;29;20616;-76
2021/06/18 07:22:05;;;;;;;9.43;6.00;;;31.30;91.70;;;;;;4934828;29;20227;-77
2021/06/18 07:24:33;;;;;;;6.60;6.00;;;31.00;92.90;;;;;;4931274;29;20233;-77
2021/06/18 07:27:00;;;;;;;6.50;5.90;;;31.30;93.70;;;;;;4933071;29;20250;-77
2021/06/18 07:29:26;;;;;;;6.10;5.20;;;31.60;93.00;;;;;;4936157;29;20297;-76
2021/06/18 07:31:54;;;;;;;6.23;5.63;;;31.70;93.40;;;;;;4935951;29;20223;-78
2021/06/18 07:34:21;;;;;;;6.63;6.10;;;31.70;93.70;;;;;;4936198;29;20211;-77
2021/06/18 07:36:47;;;;;;;6.87;6.13;;;31.90;93.20;;;;;;4936014;29;20223;-76
2021/06/18 07:39:15;;;;;;;6.17;5.57;;;32.10;92.50;;;;;;4931072;29;20587;-78
2021/06/18 07:41:43;;;;;;;6.40;5.90;;;32.00;93.10;;;;;;4934801;29;20757;-76
2021/06/18 07:44:10;;;;;;;6.43;5.83;;;32.20;92.20;;;;;;4935909;29;20206;-77
2021/06/18 07:46:37;;;;;;;6.80;6.20;;;32.30;92.90;;;;;;4935838;29;20195;-77
2021/06/18 07:49:04;;;;;;;6.70;6.00;;;32.50;93.20;;;;;;4935904;29;20225;-77
2021/06/18 07:51:31;;;;;;;6.50;6.00;;;32.50;91.80;;;;;;4935791;29;20192;-78
2021/06/18 07:53:58;;;;;;;7.00;6.20;;;32.50;92.50;;;;;;4936159;29;20770;-77
2021/06/18 07:56:26;;;;;;;7.17;6.43;;;32.30;91.90;;;;;;4935990;29;20192;-77
2021/06/18 07:58:54;;;;;;;7.33;6.43;;;32.10;92.00;;;;;;4935839;29;20579;-77
2021/06/18 08:01:22;;;;;;;7.33;6.63;;;32.00;91.10;;;;;;4934727;29;20230;-77
2021/06/18 08:03:49;;;;;;;7.60;7.00;;;31.70;91.80;;;;;;4935005;29;20737;-76
2021/06/18 08:06:16;;;;;;;8.70;7.90;;;31.70;92.10;;;;;;4935813;29;20270;-76
2021/06/18 08:08:43;;;;;;;11.23;7.77;;;31.80;92.70;;;;;;4935633;29;20875;-77
2021/06/18 08:11:11;;;;;;;8.60;7.90;;;31.60;91.60;;;;;;4935269;29;20586;-78
2021/06/18 08:13:38;;;;;;;8.23;7.63;;;31.60;91.70;;;;;;4935214;29;20226;-77
2021/06/18 08:16:06;;;;;;;8.53;7.83;;;31.30;91.50;;;;;;4934196;29;20203;-77
2021/06/18 08:18:35;;;;;;;8.47;7.87;;;31.40;92.00;;;;;;4935234;29;20195;-77
2021/06/18 08:21:02;;;;;;;8.53;7.83;;;31.60;91.70;;;;;;4935124;29;20694;-76
2021/06/18 08:23:29;;;;;;;8.07;7.37;;;32.00;92.70;;;;;;4935122;29;20227;-77
2021/06/18 08:25:56;;;;;;;9.03;8.20;;;32.40;92.70;;;;;;4935131;29;20227;-77
2021/06/18 08:28:23;;;;;;;9.07;8.07;;;32.60;91.10;;;;;;4933785;29;20705;-77
2021/06/18 08:30:51;;;;;;;8.47;7.67;;;32.50;91.40;;;;;;4927472;29;20198;-77
2021/06/18 08:33:19;;;;;;;8.00;7.20;;;32.50;90.60;;;;;;4933794;29;20250;-76
2021/06/18 08:35:46;;;;;;;8.23;7.43;;;32.40;90.90;;;;;;4933870;29;20292;-77
2021/06/18 08:38:13;;;;;;;8.23;7.53;;;32.30;91.00;;;;;;4935028;29;20206;-77
2021/06/18 08:40:40;;;;;;;8.70;8.00;;;32.40;91.60;;;;;;4933569;29;20203;-77
2021/06/18 08:43:07;;;;;;;8.53;7.83;;;32.60;90.00;;;;;;4934981;29;20604;-77
2021/06/18 08:45:35;;;;;;;8.57;7.80;;;32.90;90.60;;;;;;4934916;29;20572;-77
2021/06/18 08:48:03;;;;;;;10.17;8.07;;;32.90;90.50;;;;;;4934803;29;20199;-77
2021/06/18 08:50:31;;;;;;;8.43;7.57;;;32.80;90.70;;;;;;4934687;29;20207;-77
2021/06/18 08:53:01;;;;;;;7.47;6.77;;;32.60;90.10;;;;;;4934646;29;20239;-77
2021/06/18 08:55:30;;;;;;;7.80;7.10;;;33.00;91.80;;;;;;4933372;29;20210;-77
2021/06/18 08:57:59;;;;;;;7.78;6.97;;;33.30;90.90;;;;;;4934989;29;20195;-77
2021/06/18 09:00:28;;;;;;;7.30;6.65;;;33.60;90.50;;;;;;4935247;29;20203;-77
2021/06/18 09:02:56;;;;;;;7.53;6.82;;;33.70;90.20;;;;;;4934716;29;20226;-78
2021/06/18 09:05:23;;;;;;;8.68;7.95;;;33.40;90.20;;;;;;4933212;29;20294;-78
2021/06/18 09:07:56;;;;;;;9.25;8.30;;;33.60;91.00;;;;;;4924491;29;20271;-77
2021/06/18 09:10:35;;;;;;;8.32;7.40;;;33.80;88.30;;;;;;4934295;29;20205;-77
2021/06/18 09:13:13;;;;;;;7.65;6.95;;;33.40;90.50;;;;;;4927958;29;20218;-77
2021/06/18 09:15:43;;;;;;;7.30;6.60;;;33.70;90.70;;;;;;4934229;29;20195;-78
2021/06/18 09:18:28;;;;;;;10.55;6.88;;;33.70;90.20;;;;;;4932366;29;20238;-77
2021/06/18 09:21:13;;;;;;;7.68;6.97;;;33.70;88.30;;;;;;4927153;29;20218;-77
2021/06/18 09:23:43;;;;;;;8.55;7.85;;;33.70;89.80;;;;;;4934256;29;20226;-77
2021/06/18 09:26:23;;;;;;;8.82;8.07;;;33.80;89.40;;;;;;4929399;29;20235;-77
2021/06/18 09:29:03;;;;;;;8.50;7.88;;;33.50;90.90;;;;;;4926757;29;20203;-77
2021/06/18 09:31:32;;;;;;;7.95;7.05;;;33.90;90.90;;;;;;4932341;29;20920;-77
2021/06/18 09:33:59;;;;;;;7.70;7.10;;;34.20;89.40;;;;;;4934005;29;20207;-76
2021/06/18 09:36:26;;;;;;;7.57;6.88;;;34.20;88.70;;;;;;4934214;29;20195;-75
2021/06/18 09:38:56;;;;;;;7.70;6.90;;;34.20;89.40;;;;;;4925782;29;20191;-76
2021/06/18 09:41:34;;;;;;;7.85;7.25;;;34.20;89.40;;;;;;4926626;28;20310;-76
2021/06/18 09:44:03;;;;;;;7.50;6.90;;;34.30;90.30;;;;;;4930114;29;20207;-76
2021/06/18 09:46:48;;;;;;;7.40;6.80;;;34.10;89.80;;;;;;4933915;29;20290;-75
2021/06/18 09:49:35;;;;;;;8.20;7.50;;;34.20;89.40;;;;;;4934237;29;20219;-76
2021/06/18 09:52:04;;;;;;;8.43;7.72;;;34.30;87.30;;;;;;4929418;29;20746;-76
2021/06/18 09:54:34;;;;;;;9.10;8.40;;;34.60;87.80;;;;;;4932982;29;20246;-77
2021/06/18 09:57:06;;;;;;;8.93;8.30;;;34.40;87.70;;;;;;4934066;29;20278;-77
2021/06/18 10:00:00;;;;;;;9.10;8.30;;;34.50;87.90;;;;;;4927367;29;20199;-78
2021/06/18 10:02:39;;;;;;;9.00;8.30;;;34.50;88.80;;;;;;4931899;29;20262;-77
2021/06/18 10:05:08;;;;;;;8.82;8.13;;;34.60;89.20;;;;;;4933767;29;20294;-77
2021/06/18 10:07:35;;;;;;;8.77;7.97;;;34.10;87.00;;;;;;4932699;29;20242;-76
2021/06/18 10:10:06;;;;;;;9.45;8.55;;;33.70;88.10;;;;;;4930378;29;20288;-77
2021/06/18 10:12:33;;;;;;;9.15;8.30;;;33.80;90.10;;;;;;4931114;29;20222;-76
2021/06/18 10:15:06;;;;;;;9.15;8.45;;;34.00;89.70;;;;;;4934090;29;20199;-76
2021/06/18 10:17:33;;;;;;;8.65;7.95;;;34.00;88.90;;;;;;4933704;29;20206;-77
2021/06/18 10:20:01;;;;;;;8.77;7.97;;;34.20;88.60;;;;;;4934279;29;20203;-79
2021/06/18 10:22:28;;;;;;;8.23;7.40;;;34.40;86.70;;;;;;4921593;29;20231;-76
2021/06/18 10:25:00;;;;;;;7.25;6.55;;;34.40;86.40;;;;;;4930743;29;20202;-78
2021/06/18 10:27:31;;;;;;;8.80;8.00;;;34.20;82.70;;;;;;4930115;29;20199;-77
2021/06/18 10:29:58;;;;;;;8.38;7.65;;;34.00;84.20;;;;;;4930308;29;20203;-78
2021/06/18 10:32:33;;;;;;;9.02;8.23;;;33.90;84.70;;;;;;4929465;29;20297;-78
2021/06/18 10:35:02;;;;;;;8.53;7.83;;;33.70;84.20;;;;;;4935428;29;20202;-76
2021/06/18 10:37:32;;;;;;;8.40;7.80;;;33.80;82.30;;;;;;4930931;29;20255;-78
2021/06/18 10:40:06;;;;;;;8.45;7.68;;;33.80;83.70;;;;;;4935530;29;20251;-78
2021/06/18 10:42:34;;;;;;;9.10;8.30;;;33.90;83.40;;;;;;4931384;29;20230;-76
2021/06/18 10:45:01;;;;;;;8.53;7.83;;;33.90;84.80;;;;;;4932694;29;20207;-75
2021/06/18 10:47:50;;;;;;;8.57;7.80;;;33.90;87.30;;;;;;4931225;29;20274;-78
2021/06/18 10:50:49;;;;;;;9.73;7.80;;;34.00;86.90;;;;;;4924364;29;20348;-77
2021/06/18 10:53:21;;;;;;;8.82;8.02;;;33.70;86.70;;;;;;4931229;29;20290;-75
2021/06/18 10:55:49;;;;;;;9.33;8.37;;;33.30;87.30;;;;;;4933234;29;20190;-76
2021/06/18 10:58:17;;;;;;;8.70;8.00;;;33.30;85.30;;;;;;4935146;29;20195;-75
2021/06/18 11:00:44;;;;;;;8.80;8.10;;;33.30;84.80;;;;;;4936171;29;20211;-76
2021/06/18 11:03:13;;;;;;;8.13;7.53;;;33.30;88.20;;;;;;4929690;29;20227;-76
2021/06/18 11:05:41;;;;;;;8.83;8.20;;;33.30;86.80;;;;;;4929779;29;20216;-77
2021/06/18 11:08:28;;;;;;;8.80;8.10;;;33.20;88.60;;;;;;4932178;29;20208;-77
2021/06/18 11:10:58;;;;;;;8.60;7.90;;;33.20;87.30;;;;;;4931726;29;20253;-76
2021/06/18 11:13:27;;;;;;;8.63;7.87;;;33.20;88.80;;;;;;4935111;29;20710;-76
2021/06/18 11:15:54;;;;;;;9.20;8.30;;;33.40;88.00;;;;;;4935398;29;20214;-76
2021/06/18 11:18:33;;;;;;;9.00;8.30;;;33.50;86.40;;;;;;4930720;29;20259;-76
2021/06/18 11:21:06;;;;;;;8.57;7.88;;;33.50;86.30;;;;;;4936341;29;20234;-75
2021/06/18 11:23:36;;;;;;;9.03;8.23;;;33.30;83.90;;;;;;4966194;23;20234;-78
2021/06/18 11:26:21;;;;;;;9.63;8.05;;;33.30;87.10;;;;;;4958330;28;20737;-78
2021/06/18 11:28:52;;;;;;;8.20;7.50;;;33.30;83.50;;;;;;4957612;28;20720;-78
2021/06/18 11:31:40;;;;;;;8.50;7.80;;;33.20;84.10;;;;;;4959090;28;20286;-78
2021/06/18 11:34:23;;;;;;;8.63;7.83;;;33.10;83.40;;;;;;4952591;29;20232;-79
2021/06/18 11:36:52;;;;;;;8.90;8.13;;;33.00;82.10;;;;;;4972830;28;20201;-78
2021/06/18 11:39:27;;;;;;;8.07;7.47;;;32.90;84.00;;;;;;4955871;28;20697;-77
2021/06/18 11:42:08;;;;;;;8.20;7.50;;;33.00;83.80;;;;;;4955976;28;20213;-78
2021/06/18 11:44:38;;;;;;;8.70;7.87;;;33.00;84.30;;;;;;4956922;28;20202;-78
2021/06/18 11:47:05;;;;;;;8.93;8.07;;;32.90;83.50;;;;;;4957655;28;20206;-78
2021/06/18 11:49:36;;;;;;;8.67;7.93;;;32.90;85.90;;;;;;4957132;28;20206;-78
2021/06/18 11:52:09;;;;;;;8.77;7.90;;;32.80;83.50;;;;;;4956130;28;20199;-78
2021/06/18 11:54:40;;;;;;;8.80;8.10;;;32.60;85.20;;;;;;4972642;28;20696;-78
2021/06/18 11:57:22;;;;;;;8.63;7.93;;;32.70;86.20;;;;;;4956237;28;20261;-79
2021/06/18 11:59:56;;;;;;;8.57;7.87;;;32.80;86.40;;;;;;4952303;28;20202;-78
2021/06/18 12:02:25;;;;;;;8.43;7.73;;;32.90;87.10;;;;;;4954110;28;20230;-78
2021/06/18 12:05:14;;;;;;;8.37;7.73;;;32.90;88.10;;;;;;4950271;28;20191;-78
2021/06/18 12:07:41;;;;;;;8.83;8.03;;;32.80;83.40;;;;;;4944065;29;20203;-78
2021/06/18 12:10:10;;;;;;;8.13;7.43;;;32.50;85.70;;;;;;4943641;28;20199;-78
2021/06/18 12:12:48;;;;;;;8.63;7.83;;;32.50;84.40;;;;;;4921735;29;20264;-78
2021/06/18 12:15:35;;;;;;;9.07;8.37;;;32.50;85.60;;;;;;4925909;29;20199;-78
2021/06/18 12:18:04;;;;;;;8.47;7.80;;;32.40;86.60;;;;;;4936655;29;20295;-78
2021/06/18 12:20:35;;;;;;;8.47;7.87;;;32.50;86.50;;;;;;4925874;29;20220;-78
2021/06/18 12:23:04;;;;;;;8.70;7.80;;;32.70;87.60;;;;;;4930090;29;20296;-78
2021/06/18 12:25:32;;;;;;;8.43;7.73;;;32.70;84.10;;;;;;4938801;29;20677;-77
2021/06/18 12:28:00;;;;;;;9.13;8.23;;;32.70;87.50;;;;;;4925231;29;20252;-78
2021/06/18 12:30:32;;;;;;;9.17;8.27;;;32.70;86.20;;;;;;4943008;28;20963;-78
2021/06/18 12:33:01;;;;;;;8.30;7.70;;;32.70;85.20;;;;;;4921021;29;20750;-78
2021/06/18 12:35:37;;;;;;;8.73;7.80;;;32.60;87.30;;;;;;4927273;29;20215;-78
2021/06/18 12:38:05;;;;;;;8.47;7.77;;;32.30;86.30;;;;;;4919024;29;20199;-77
2021/06/18 12:40:33;;;;;;;8.20;7.60;;;32.30;87.20;;;;;;4922778;29;20255;-78
2021/06/18 12:43:08;;;;;;;8.40;7.70;;;32.50;86.20;;;;;;4925308;29;20227;-78
2021/06/18 12:45:46;;;;;;;8.50;7.80;;;32.50;85.80;;;;;;4928577;29;20306;-78
2021/06/18 12:48:17;;;;;;;8.27;7.57;;;32.60;88.20;;;;;;4922822;29;20258;-78
2021/06/18 12:50:49;;;;;;;8.00;7.40;;;32.60;86.50;;;;;;4920947;29;20203;-78
2021/06/18 12:53:17;;;;;;;7.73;7.13;;;32.70;85.90;;;;;;4938144;29;20224;-78
2021/06/18 12:55:51;;;;;;;8.37;7.67;;;32.90;87.80;;;;;;4925395;29;20214;-78
2021/06/18 12:58:20;;;;;;;8.30;7.60;;;32.70;85.40;;;;;;4936174;29;20203;-78
2021/06/18 13:00:53;;;;;;;8.90;8.07;;;32.70;86.10;;;;;;4918259;29;20211;-78
2021/06/18 13:03:32;;;;;;;8.53;7.67;;;32.60;86.60;;;;;;4921277;29;20231;-78